Time;durP1;ratioP1;P1;durP2;ratioP2;P2;SDS_P1;SDS_P2;PMS_P1;PMS_P2;Temp;Humidity;BMP_temperature;BMP_pressure;BME280_temperature;BME280_humidity;BME280_pressure;Samples;Min_cycle;Max_cycle;Signal;HPM_P1;HPM_P2
2022/04/05 00:01:41;;;;;;;0.10;0.10;;;7.70;99.90;;;;;;4994024;28;20092;-60
2022/04/05 00:04:06;;;;;;;0.00;0.00;;;7.80;99.90;;;;;;4993015;28;20034;-60
2022/04/05 00:06:32;;;;;;;0.30;0.30;;;7.80;99.90;;;;;;4992647;28;20038;-61
2022/04/05 00:08:58;;;;;;;0.20;0.20;;;7.80;99.90;;;;;;4994028;28;20026;-60
2022/04/05 00:11:23;;;;;;;0.20;0.20;;;7.70;99.90;;;;;;4994328;28;20116;-61
2022/04/05 00:13:49;;;;;;;0.40;0.40;;;7.70;99.90;;;;;;4993940;28;20041;-61
2022/04/05 00:16:15;;;;;;;0.00;0.00;;;7.70;99.90;;;;;;4993798;28;20045;-60
2022/04/05 00:18:44;;;;;;;0.10;0.10;;;7.80;99.90;;;;;;4994125;28;20041;-61
2022/04/05 00:21:10;;;;;;;0.10;0.10;;;7.70;99.90;;;;;;4992870;28;20038;-60
2022/04/05 00:23:36;;;;;;;0.10;0.10;;;7.60;99.90;;;;;;4994003;28;20081;-62
2022/04/05 00:26:02;;;;;;;0.10;0.10;;;7.50;99.90;;;;;;4992542;28;20042;-62
2022/04/05 00:28:30;;;;;;;0.10;0.10;;;7.40;99.90;;;;;;4993386;28;20027;-60
2022/04/05 00:30:56;;;;;;;0.20;0.20;;;7.30;99.90;;;;;;4993496;28;20085;-60
2022/04/05 00:33:22;;;;;;;0.68;0.68;;;7.10;99.90;;;;;;4993939;28;20502;-60
2022/04/05 00:35:48;;;;;;;0.95;0.95;;;7.00;99.90;;;;;;4993815;28;20063;-62
2022/04/05 00:38:14;;;;;;;0.10;0.10;;;6.90;99.90;;;;;;4993453;28;20431;-60
2022/04/05 00:40:39;;;;;;;0.00;0.00;;;6.80;99.90;;;;;;4992410;28;20034;-61
2022/04/05 00:43:05;;;;;;;3.90;3.50;;;6.70;99.90;;;;;;4993411;28;20026;-60
2022/04/05 00:45:35;;;;;;;0.30;0.30;;;6.80;99.90;;;;;;4992243;28;20027;-61
2022/04/05 00:48:05;;;;;;;0.00;0.00;;;6.90;99.90;;;;;;4992038;28;20034;-55
2022/04/05 00:50:36;;;;;;;0.10;0.10;;;7.00;99.90;;;;;;4993720;28;20054;-60
2022/04/05 00:53:05;;;;;;;0.10;0.10;;;7.00;99.90;;;;;;4992011;28;20386;-60
2022/04/05 00:55:32;;;;;;;0.05;0.05;;;7.20;99.90;;;;;;4993196;28;20030;-61
2022/04/05 00:58:02;;;;;;;7.88;1.33;;;7.20;99.90;;;;;;4993126;28;20105;-60
2022/04/05 01:00:28;;;;;;;0.20;0.20;;;7.10;99.90;;;;;;4991372;28;20045;-61
2022/04/05 01:02:55;;;;;;;0.17;0.17;;;7.20;99.90;;;;;;4991628;28;20034;-61
2022/04/05 01:05:23;;;;;;;0.25;0.25;;;7.20;99.90;;;;;;4981001;28;20065;-62
2022/04/05 01:07:50;;;;;;;0.52;0.52;;;7.30;99.90;;;;;;4971742;28;20034;-62
2022/04/05 01:10:16;;;;;;;0.45;0.32;;;7.30;99.90;;;;;;4971501;28;20030;-61
2022/04/05 01:12:42;;;;;;;7.13;0.82;;;7.30;99.90;;;;;;4989602;28;20042;-61
2022/04/05 01:15:09;;;;;;;0.17;0.17;;;7.40;99.90;;;;;;4988986;28;20539;-61
2022/04/05 01:17:35;;;;;;;0.35;0.35;;;7.40;99.90;;;;;;4971782;28;20046;-61
2022/04/05 01:20:03;;;;;;;0.40;0.40;;;7.40;99.90;;;;;;4972114;28;20432;-61
2022/04/05 01:22:28;;;;;;;0.10;0.10;;;7.40;99.90;;;;;;4973336;28;20035;-61
2022/04/05 01:24:54;;;;;;;0.10;0.10;;;7.50;99.90;;;;;;4986144;28;20041;-61
2022/04/05 01:27:20;;;;;;;0.10;0.10;;;7.50;99.90;;;;;;4991122;28;20030;-61
2022/04/05 01:29:47;;;;;;;0.00;0.00;;;7.50;99.90;;;;;;4992847;28;20034;-61
2022/04/05 01:32:13;;;;;;;0.10;0.10;;;7.40;99.90;;;;;;4991325;28;20557;-61
2022/04/05 01:34:40;;;;;;;0.10;0.10;;;7.50;99.90;;;;;;4991186;28;20022;-61
2022/04/05 01:37:10;;;;;;;0.47;0.47;;;7.40;99.90;;;;;;4992164;28;20122;-62
2022/04/05 01:39:38;;;;;;;0.20;0.20;;;7.40;99.90;;;;;;4991379;28;20490;-61
2022/04/05 01:42:14;;;;;;;0.65;0.55;;;7.40;99.90;;;;;;4978730;28;20037;-62
2022/04/05 01:44:42;;;;;;;0.57;0.57;;;7.30;99.90;;;;;;4972990;28;20074;-62
2022/04/05 01:47:14;;;;;;;0.40;0.40;;;7.20;99.90;;;;;;4972732;28;20101;-62
2022/04/05 01:49:42;;;;;;;0.32;0.32;;;7.20;99.90;;;;;;4972779;28;20706;-61
2022/04/05 01:52:09;;;;;;;0.20;0.20;;;7.10;99.90;;;;;;4972701;28;20491;-62
2022/04/05 01:54:35;;;;;;;0.00;0.00;;;7.20;99.90;;;;;;4971722;28;20042;-61
2022/04/05 01:57:01;;;;;;;0.00;0.00;;;7.20;99.90;;;;;;4971460;28;20066;-61
2022/04/05 01:59:32;;;;;;;0.10;0.10;;;7.30;99.90;;;;;;4972788;28;20054;-61
2022/04/05 02:01:58;;;;;;;0.00;0.00;;;7.40;99.90;;;;;;4971216;28;20069;-61
2022/04/05 02:04:24;;;;;;;0.10;0.10;;;7.40;99.90;;;;;;4972454;28;20039;-60
2022/04/05 02:06:51;;;;;;;1.00;1.00;;;7.40;99.90;;;;;;4955090;28;20039;-61
2022/04/05 02:09:17;;;;;;;0.10;0.10;;;7.30;99.90;;;;;;4972614;28;20085;-61
2022/04/05 02:11:46;;;;;;;0.10;0.10;;;7.30;99.90;;;;;;4971609;28;20039;-61
2022/04/05 02:14:14;;;;;;;0.00;0.00;;;7.30;99.90;;;;;;4971473;28;20023;-61
2022/04/05 02:16:40;;;;;;;0.10;0.10;;;7.30;99.90;;;;;;4989638;28;20034;-61
2022/04/05 02:19:06;;;;;;;0.10;0.10;;;7.30;99.90;;;;;;4974214;28;20034;-60
2022/04/05 02:21:32;;;;;;;0.10;0.10;;;7.20;99.90;;;;;;4990250;28;20034;-62
2022/04/05 02:23:59;;;;;;;0.00;0.00;;;7.30;99.90;;;;;;4991482;28;20081;-61
2022/04/05 02:26:25;;;;;;;0.20;0.20;;;7.20;99.90;;;;;;4990057;28;20056;-60
2022/04/05 02:28:51;;;;;;;1.75;0.90;;;7.30;99.90;;;;;;4991686;28;20038;-60
2022/04/05 02:31:17;;;;;;;3.20;2.28;;;7.30;99.90;;;;;;4991688;28;20022;-61
2022/04/05 02:33:43;;;;;;;0.00;0.00;;;7.30;99.90;;;;;;4990050;28;20088;-60
2022/04/05 02:36:08;;;;;;;0.70;0.57;;;7.30;99.90;;;;;;4990416;28;20030;-61
2022/04/05 02:38:36;;;;;;;0.45;0.45;;;7.30;99.90;;;;;;4991376;28;20113;-60
2022/04/05 02:41:05;;;;;;;0.30;0.30;;;7.20;99.90;;;;;;4991557;28;20029;-60
2022/04/05 02:43:34;;;;;;;0.20;0.20;;;7.10;99.90;;;;;;4990154;28;20406;-60
2022/04/05 02:46:02;;;;;;;0.10;0.10;;;7.10;99.90;;;;;;4989785;28;20034;-61
2022/04/05 02:48:28;;;;;;;0.20;0.20;;;7.00;99.90;;;;;;4989684;28;20490;-60
2022/04/05 02:50:54;;;;;;;0.10;0.10;;;7.00;99.90;;;;;;4991171;28;20160;-60
2022/04/05 02:53:20;;;;;;;0.10;0.10;;;7.00;99.90;;;;;;4989724;28;20253;-60
2022/04/05 02:55:46;;;;;;;0.10;0.10;;;7.00;99.90;;;;;;4991150;28;20037;-60
2022/04/05 02:58:12;;;;;;;0.10;0.10;;;7.00;99.90;;;;;;4990722;28;20040;-60
2022/04/05 03:00:39;;;;;;;1.67;1.55;;;7.00;99.90;;;;;;4990196;28;20040;-60
2022/04/05 03:03:05;;;;;;;0.43;0.43;;;7.00;99.90;;;;;;4981116;28;20827;-60
2022/04/05 03:05:32;;;;;;;13.68;1.08;;;7.00;99.90;;;;;;4969282;28;20042;-60
2022/04/05 03:07:57;;;;;;;0.10;0.10;;;6.90;99.90;;;;;;4972271;28;20030;-59
2022/04/05 03:10:25;;;;;;;0.20;0.20;;;6.90;99.90;;;;;;4970425;28;20395;-61
2022/04/05 03:12:50;;;;;;;0.13;0.13;;;7.00;99.90;;;;;;4951316;28;20034;-62
2022/04/05 03:15:16;;;;;;;0.20;0.20;;;7.10;99.90;;;;;;4963740;28;20033;-61
2022/04/05 03:17:45;;;;;;;0.00;0.00;;;7.00;99.90;;;;;;4971650;28;20125;-61
2022/04/05 03:20:12;;;;;;;0.35;0.35;;;6.90;99.90;;;;;;4970209;28;20037;-62
2022/04/05 03:22:42;;;;;;;0.00;0.00;;;6.90;99.90;;;;;;4971833;28;20038;-62
2022/04/05 03:25:10;;;;;;;0.00;0.00;;;6.90;99.90;;;;;;4986765;28;20034;-62
2022/04/05 03:27:41;;;;;;;10.45;1.75;;;6.90;99.90;;;;;;4993332;28;20121;-62
2022/04/05 03:30:10;;;;;;;0.80;0.80;;;6.90;99.90;;;;;;4994573;28;20022;-62
2022/04/05 03:32:36;;;;;;;0.00;0.00;;;7.00;99.90;;;;;;4977226;28;20565;-62
2022/04/05 03:35:06;;;;;;;0.85;0.85;;;7.00;99.90;;;;;;4994898;28;20073;-61
2022/04/05 03:37:32;;;;;;;0.10;0.10;;;7.00;99.90;;;;;;4994710;28;20034;-61
2022/04/05 03:39:59;;;;;;;0.00;0.00;;;6.90;99.90;;;;;;4993420;28;20038;-61
2022/04/05 03:42:25;;;;;;;0.60;0.60;;;7.00;99.90;;;;;;4981223;28;20022;-61
2022/04/05 03:44:51;;;;;;;0.10;0.10;;;6.90;99.90;;;;;;4973897;28;20429;-61
2022/04/05 03:47:17;;;;;;;0.22;0.22;;;6.90;99.90;;;;;;4975066;28;20035;-61
2022/04/05 03:49:43;;;;;;;0.10;0.10;;;6.80;99.90;;;;;;4973876;28;20031;-61
2022/04/05 03:52:10;;;;;;;0.00;0.00;;;6.80;99.90;;;;;;4980854;28;20034;-62
2022/04/05 03:54:36;;;;;;;0.00;0.00;;;6.70;99.90;;;;;;4984895;28;20030;-61
2022/04/05 03:57:02;;;;;;;0.08;0.08;;;6.70;99.90;;;;;;4990833;28;20027;-62
2022/04/05 03:59:28;;;;;;;0.10;0.10;;;6.70;99.90;;;;;;4967993;28;20026;-62
2022/04/05 04:01:54;;;;;;;0.10;0.10;;;6.70;99.90;;;;;;4982170;28;20521;-62
2022/04/05 04:04:20;;;;;;;1.55;1.08;;;6.70;99.90;;;;;;4970239;28;20027;-62
2022/04/05 04:06:46;;;;;;;0.17;0.17;;;6.70;99.90;;;;;;4976302;28;20037;-61
2022/04/05 04:09:11;;;;;;;0.00;0.00;;;6.70;99.90;;;;;;4977630;28;20027;-61
2022/04/05 04:11:41;;;;;;;0.10;0.10;;;6.70;99.90;;;;;;4969082;28;20035;-61
2022/04/05 04:14:07;;;;;;;0.40;0.40;;;6.70;99.90;;;;;;4975948;28;20080;-60
2022/04/05 04:16:34;;;;;;;1.05;0.98;;;6.70;99.90;;;;;;4981228;28;20403;-62
2022/04/05 04:19:00;;;;;;;0.10;0.10;;;6.70;99.90;;;;;;4980585;28;20026;-61
2022/04/05 04:21:25;;;;;;;0.38;0.38;;;6.70;99.90;;;;;;4980268;28;20387;-61
2022/04/05 04:23:51;;;;;;;1.30;0.90;;;6.70;99.90;;;;;;4974264;28;20387;-61
2022/04/05 04:26:17;;;;;;;0.30;0.30;;;6.60;99.90;;;;;;4972416;28;20066;-62
2022/04/05 04:28:50;;;;;;;0.00;0.00;;;6.60;99.90;;;;;;4972257;28;20105;-62
2022/04/05 04:31:16;;;;;;;0.00;0.00;;;6.60;99.90;;;;;;4974251;28;20386;-61
2022/04/05 04:33:42;;;;;;;0.10;0.10;;;6.50;99.90;;;;;;4973220;28;20031;-62
2022/04/05 04:36:08;;;;;;;0.00;0.00;;;6.50;99.90;;;;;;4972543;28;20023;-62
2022/04/05 04:38:33;;;;;;;0.82;0.82;;;6.50;99.90;;;;;;4983949;28;20045;-61
2022/04/05 04:40:59;;;;;;;0.03;0.03;;;6.50;99.90;;;;;;4980973;28;20502;-61
2022/04/05 04:43:27;;;;;;;0.10;0.10;;;6.50;99.90;;;;;;4983004;28;20532;-61
2022/04/05 04:45:54;;;;;;;0.10;0.10;;;6.50;99.90;;;;;;4976348;28;20039;-62
2022/04/05 04:48:21;;;;;;;0.05;0.05;;;6.50;99.90;;;;;;4973707;28;20034;-62
2022/04/05 04:50:48;;;;;;;0.10;0.10;;;6.50;99.90;;;;;;4971903;28;20364;-61
2022/04/05 04:53:14;;;;;;;0.00;0.00;;;6.50;99.90;;;;;;4956354;28;20037;-61
2022/04/05 04:55:40;;;;;;;0.08;0.08;;;6.50;99.90;;;;;;4968681;28;20039;-62
2022/04/05 04:58:06;;;;;;;0.10;0.10;;;6.50;99.90;;;;;;4968031;28;20055;-63
2022/04/05 05:00:32;;;;;;;0.30;0.30;;;6.40;99.90;;;;;;4968292;28;20055;-60
2022/04/05 05:02:58;;;;;;;0.40;0.40;;;6.40;99.90;;;;;;4968709;28;20038;-61
2022/04/05 05:05:24;;;;;;;0.00;0.00;;;6.30;99.90;;;;;;4967680;28;20391;-60
2022/04/05 05:07:51;;;;;;;0.13;0.13;;;6.30;99.90;;;;;;4970355;28;20085;-61
2022/04/05 05:10:20;;;;;;;0.10;0.10;;;6.30;99.90;;;;;;4968025;28;20085;-61
2022/04/05 05:12:46;;;;;;;0.10;0.10;;;6.20;99.90;;;;;;4977338;28;20054;-60
2022/04/05 05:15:18;;;;;;;0.20;0.20;;;6.30;99.90;;;;;;4987669;28;20085;-63
2022/04/05 05:17:46;;;;;;;0.43;0.43;;;6.20;99.90;;;;;;4958493;28;20046;-61
2022/04/05 05:20:16;;;;;;;0.20;0.20;;;6.20;99.90;;;;;;4970209;28;20054;-62
2022/04/05 05:22:43;;;;;;;0.20;0.20;;;6.20;99.90;;;;;;4965412;28;20035;-62
2022/04/05 05:25:10;;;;;;;0.10;0.10;;;6.20;99.90;;;;;;4967675;28;20062;-60
2022/04/05 05:27:37;;;;;;;0.10;0.10;;;6.20;99.90;;;;;;4977130;28;20023;-61
2022/04/05 05:30:09;;;;;;;0.00;0.00;;;6.20;99.90;;;;;;4979822;28;20453;-61
2022/04/05 05:32:45;;;;;;;;;;;6.20;99.90;;;;;;4971951;28;20042;-60
2022/04/05 05:35:14;;;;;;;0.00;0.00;;;6.20;99.90;;;;;;4971704;28;19969;-61
2022/04/05 05:37:40;;;;;;;0.00;0.00;;;6.20;99.90;;;;;;4971268;28;20035;-61
2022/04/05 05:40:06;;;;;;;0.20;0.20;;;6.20;99.90;;;;;;4972393;28;20391;-61
2022/04/05 05:42:32;;;;;;;0.10;0.10;;;6.20;99.90;;;;;;4972678;28;20470;-61
2022/04/05 05:44:58;;;;;;;0.20;0.20;;;6.20;99.90;;;;;;4972348;28;20037;-61
2022/04/05 05:47:24;;;;;;;0.10;0.10;;;6.20;99.90;;;;;;4970829;28;20035;-61
2022/04/05 05:49:51;;;;;;;0.32;0.32;;;6.20;99.90;;;;;;4972262;28;20537;-61
2022/04/05 05:52:16;;;;;;;0.10;0.10;;;6.10;99.90;;;;;;4972735;28;20063;-61
2022/04/05 05:54:42;;;;;;;0.17;0.17;;;6.20;99.90;;;;;;4972803;28;20522;-61
2022/04/05 05:57:08;;;;;;;0.10;0.10;;;6.20;99.90;;;;;;4972039;28;20521;-61
2022/04/05 05:59:34;;;;;;;3.20;1.45;;;6.20;99.90;;;;;;4971251;28;20109;-61
2022/04/05 06:01:59;;;;;;;0.00;0.00;;;6.20;99.90;;;;;;4970343;28;20034;-61
2022/04/05 06:04:25;;;;;;;2.38;0.82;;;6.20;99.90;;;;;;4972649;28;20046;-61
2022/04/05 06:06:51;;;;;;;0.10;0.10;;;6.20;99.90;;;;;;4971993;28;20496;-61
2022/04/05 06:09:16;;;;;;;0.00;0.00;;;6.20;99.90;;;;;;4960959;28;20067;-61
2022/04/05 06:11:42;;;;;;;0.17;0.17;;;6.20;99.90;;;;;;4952478;28;20023;-60
2022/04/05 06:14:08;;;;;;;0.15;0.15;;;6.30;99.90;;;;;;4965972;28;20418;-61
2022/04/05 06:16:33;;;;;;;0.20;0.20;;;6.20;99.90;;;;;;4984473;28;20050;-61
2022/04/05 06:18:59;;;;;;;0.95;0.95;;;6.30;99.90;;;;;;4974200;28;20042;-61
2022/04/05 06:21:25;;;;;;;0.10;0.10;;;6.30;99.90;;;;;;4971903;28;20553;-60
2022/04/05 06:23:52;;;;;;;0.03;0.03;;;6.30;99.90;;;;;;4971989;28;20065;-60
2022/04/05 06:26:17;;;;;;;0.20;0.20;;;6.30;99.90;;;;;;4971480;28;20042;-61
2022/04/05 06:28:43;;;;;;;0.28;0.28;;;6.30;99.90;;;;;;4971516;28;20035;-61
2022/04/05 06:31:09;;;;;;;0.10;0.10;;;6.30;99.90;;;;;;4971510;28;20031;-61
2022/04/05 06:33:35;;;;;;;2.15;1.75;;;6.30;99.90;;;;;;4971916;28;20027;-61
2022/04/05 06:36:01;;;;;;;0.10;0.10;;;6.30;99.90;;;;;;4970659;28;20535;-62
2022/04/05 06:38:28;;;;;;;0.10;0.10;;;6.30;99.90;;;;;;4971532;28;20038;-62
2022/04/05 06:40:55;;;;;;;0.10;0.10;;;6.30;99.90;;;;;;4970023;28;20125;-61
2022/04/05 06:43:24;;;;;;;0.00;0.00;;;6.30;99.90;;;;;;4970590;28;20105;-62
2022/04/05 06:45:51;;;;;;;0.63;0.63;;;6.30;99.90;;;;;;4969981;28;20380;-62
2022/04/05 06:50:50;;;;;;;0.10;0.10;;;6.20;99.90;;;;;;4977204;28;20054;-60
2022/04/05 06:53:17;;;;;;;0.10;0.10;;;6.20;99.90;;;;;;4982795;28;20030;-60
2022/04/05 06:55:43;;;;;;;0.05;0.05;;;6.20;99.90;;;;;;4989659;28;20041;-60
2022/04/05 06:58:09;;;;;;;0.10;0.10;;;6.20;99.90;;;;;;4988206;28;20469;-60
2022/04/05 07:00:36;;;;;;;0.10;0.10;;;6.20;99.90;;;;;;4971561;28;20031;-60
2022/04/05 07:03:02;;;;;;;5.15;0.75;;;6.30;99.90;;;;;;4969913;28;20037;-60
2022/04/05 07:05:28;;;;;;;0.10;0.10;;;6.20;99.90;;;;;;4971065;28;20089;-60
2022/04/05 07:07:57;;;;;;;0.20;0.20;;;6.20;99.90;;;;;;4947113;28;20039;-60
2022/04/05 07:10:24;;;;;;;3.60;1.48;;;6.10;99.90;;;;;;4964565;28;20134;-60
2022/04/05 07:12:50;;;;;;;0.03;0.03;;;6.20;99.90;;;;;;4969841;28;20039;-61
2022/04/05 07:15:15;;;;;;;0.20;0.20;;;6.20;99.90;;;;;;4967711;28;20372;-60
2022/04/05 07:17:43;;;;;;;0.30;0.30;;;6.20;99.90;;;;;;4949800;28;20026;-60
2022/04/05 07:20:10;;;;;;;0.10;0.10;;;6.20;99.90;;;;;;4954107;28;20062;-65
2022/04/05 07:22:48;;;;;;;0.00;0.00;;;6.20;99.90;;;;;;4958007;28;20033;-60
2022/04/05 07:25:16;;;;;;;0.10;0.10;;;6.20;99.90;;;;;;4969714;28;20031;-60
2022/04/05 07:27:44;;;;;;;0.00;0.00;;;6.30;99.90;;;;;;4965421;28;20034;-59
2022/04/05 07:30:11;;;;;;;0.15;0.15;;;6.30;99.90;;;;;;4958625;28;20086;-59
2022/04/05 07:32:40;;;;;;;0.20;0.20;;;6.30;99.90;;;;;;4951953;28;20503;-60
2022/04/05 07:35:07;;;;;;;0.38;0.38;;;6.20;99.90;;;;;;4951093;29;20051;-60
2022/04/05 07:37:33;;;;;;;0.00;0.00;;;6.30;99.90;;;;;;4951695;28;20078;-61
2022/04/05 07:39:59;;;;;;;0.10;0.10;;;6.20;99.90;;;;;;4950348;29;20055;-60
2022/04/05 07:42:26;;;;;;;0.40;0.40;;;6.20;99.90;;;;;;4951470;28;20023;-61
2022/04/05 07:44:52;;;;;;;0.03;0.03;;;6.20;99.90;;;;;;4950955;29;20027;-61
2022/04/05 07:47:18;;;;;;;0.22;0.22;;;6.30;99.90;;;;;;4951483;28;20396;-60
2022/04/05 07:49:45;;;;;;;0.28;0.28;;;6.20;99.90;;;;;;4950447;28;20141;-60
2022/04/05 07:52:11;;;;;;;0.25;0.25;;;6.30;99.90;;;;;;4950698;29;20031;-61
2022/04/05 07:54:37;;;;;;;0.38;0.38;;;6.30;99.90;;;;;;4949953;28;20027;-60
2022/04/05 07:57:03;;;;;;;0.00;0.00;;;6.30;99.90;;;;;;4954503;28;20050;-60
2022/04/05 07:59:29;;;;;;;1.55;1.05;;;6.30;99.90;;;;;;4981339;28;20173;-61
2022/04/05 08:01:55;;;;;;;0.20;0.20;;;6.30;99.90;;;;;;4966133;28;20723;-61
2022/04/05 08:04:21;;;;;;;0.10;0.10;;;6.30;99.90;;;;;;4951530;28;20055;-60
2022/04/05 08:06:47;;;;;;;1.60;1.50;;;6.30;99.90;;;;;;4954211;28;20390;-60
2022/04/05 08:09:13;;;;;;;0.10;0.10;;;6.30;99.90;;;;;;4973031;28;20097;-61
2022/04/05 08:11:39;;;;;;;0.10;0.10;;;6.30;99.90;;;;;;4957550;28;20610;-60
2022/04/05 08:14:04;;;;;;;0.10;0.10;;;6.30;99.90;;;;;;4953407;29;20070;-62
2022/04/05 08:16:30;;;;;;;0.68;0.65;;;6.30;99.90;;;;;;4953350;29;20041;-60
2022/04/05 08:18:56;;;;;;;0.30;0.30;;;6.40;99.90;;;;;;4951611;29;20514;-60
2022/04/05 08:21:21;;;;;;;0.10;0.10;;;6.40;99.90;;;;;;4954897;28;20400;-60
2022/04/05 08:23:50;;;;;;;0.10;0.10;;;6.50;99.90;;;;;;4954692;28;20036;-60
2022/04/05 08:26:16;;;;;;;0.00;0.00;;;6.50;99.90;;;;;;4954878;28;20083;-61
2022/04/05 08:28:42;;;;;;;0.00;0.00;;;6.50;99.90;;;;;;4960579;28;20114;-61
2022/04/05 08:31:08;;;;;;;0.10;0.10;;;6.60;99.90;;;;;;4973043;28;20130;-61
2022/04/05 08:33:34;;;;;;;0.52;0.52;;;6.70;99.90;;;;;;4974273;28;20034;-60
2022/04/05 08:36:00;;;;;;;0.00;0.00;;;6.70;99.90;;;;;;4973051;28;20034;-60
2022/04/05 08:38:28;;;;;;;0.03;0.03;;;6.70;99.90;;;;;;4972341;28;20031;-60
2022/04/05 08:40:55;;;;;;;0.10;0.10;;;6.80;99.90;;;;;;4973855;28;20085;-60
2022/04/05 08:43:21;;;;;;;0.20;0.20;;;6.80;99.90;;;;;;4973633;28;20059;-60
2022/04/05 08:46:00;;;;;;;0.10;0.10;;;6.80;99.90;;;;;;4972578;28;20038;-61
2022/04/05 08:48:29;;;;;;;0.10;0.10;;;6.80;99.90;;;;;;4971917;28;20360;-60
2022/04/05 08:50:58;;;;;;;1.13;1.08;;;6.80;99.90;;;;;;4972581;28;20050;-60
2022/04/05 08:53:29;;;;;;;0.55;0.55;;;6.80;99.90;;;;;;4972103;28;20038;-61
2022/04/05 08:55:54;;;;;;;0.10;0.10;;;6.90;99.90;;;;;;4972652;28;20030;-61
2022/04/05 08:58:20;;;;;;;0.00;0.00;;;6.90;99.90;;;;;;4972905;28;20391;-60
2022/04/05 09:00:52;;;;;;;0.65;0.65;;;6.80;99.90;;;;;;4972486;28;20118;-60
2022/04/05 09:03:18;;;;;;;0.40;0.40;;;6.90;99.90;;;;;;4971939;28;20031;-60
2022/04/05 09:05:44;;;;;;;0.20;0.20;;;6.90;99.90;;;;;;4971532;28;20364;-59
2022/04/05 09:08:29;;;;;;;0.45;0.45;;;6.90;99.90;;;;;;4953605;28;20117;-60
2022/04/05 09:11:12;;;;;;;0.20;0.20;;;6.90;99.90;;;;;;4953819;28;20086;-61
2022/04/05 09:13:38;;;;;;;0.20;0.20;;;6.90;99.90;;;;;;4936678;29;20031;-61
2022/04/05 09:16:05;;;;;;;1.10;0.98;;;6.90;99.90;;;;;;4947663;29;20036;-61
2022/04/05 09:18:35;;;;;;;0.10;0.10;;;6.90;99.90;;;;;;4934494;29;20035;-59
2022/04/05 09:21:04;;;;;;;0.10;0.10;;;6.90;99.90;;;;;;4932874;29;20035;-60
2022/04/05 09:23:34;;;;;;;0.05;0.05;;;6.90;99.90;;;;;;4934906;29;20479;-60
2022/04/05 09:26:07;;;;;;;0.10;0.10;;;7.00;99.90;;;;;;4934755;29;20385;-60
2022/04/05 09:28:39;;;;;;;0.08;0.08;;;7.00;99.90;;;;;;4944059;28;20689;-59
2022/04/05 09:31:09;;;;;;;0.52;0.52;;;7.10;99.90;;;;;;4972891;28;20478;-60
2022/04/05 09:33:58;;;;;;;0.10;0.10;;;7.10;99.90;;;;;;4971729;28;20035;-59
2022/04/05 09:36:35;;;;;;;2.33;1.45;;;7.20;99.90;;;;;;4970971;28;20070;-60
2022/04/05 09:39:30;;;;;;;0.10;0.10;;;7.20;99.90;;;;;;4971200;28;20092;-60
2022/04/05 09:42:02;;;;;;;0.10;0.10;;;7.30;99.90;;;;;;4964334;28;20117;-60
2022/04/05 09:44:30;;;;;;;0.10;0.10;;;7.30;99.90;;;;;;4971211;28;20043;-61
2022/04/05 09:47:16;;;;;;;0.05;0.05;;;7.30;99.90;;;;;;4972803;28;20077;-60
2022/04/05 09:49:44;;;;;;;0.10;0.10;;;7.40;99.90;;;;;;4972172;28;20088;-60
2022/04/05 09:52:33;;;;;;;0.00;0.00;;;7.40;99.90;;;;;;4972914;28;20058;-60
2022/04/05 09:55:13;;;;;;;0.20;0.20;;;7.50;99.90;;;;;;4972365;28;20038;-60
2022/04/05 09:57:39;;;;;;;0.30;0.30;;;7.50;99.90;;;;;;4972014;28;20041;-59
2022/04/05 10:00:16;;;;;;;0.52;0.52;;;7.60;99.90;;;;;;4961381;28;20035;-58
2022/04/05 10:03:10;;;;;;;0.20;0.20;;;7.60;99.90;;;;;;4949340;29;20047;-60
2022/04/05 10:05:38;;;;;;;0.00;0.00;;;7.70;99.90;;;;;;4943757;28;20042;-61
2022/04/05 10:08:05;;;;;;;0.38;0.38;;;7.70;99.90;;;;;;4932531;29;20039;-60
2022/04/05 10:10:32;;;;;;;0.10;0.10;;;7.70;99.90;;;;;;4932483;29;20024;-61
2022/04/05 10:12:57;;;;;;;0.00;0.00;;;7.80;99.90;;;;;;4932572;29;20028;-60
2022/04/05 10:15:25;;;;;;;0.10;0.10;;;7.90;99.90;;;;;;4932094;29;20038;-60
2022/04/05 10:17:57;;;;;;;0.05;0.05;;;7.90;99.90;;;;;;4947940;29;20028;-61
2022/04/05 10:20:25;;;;;;;0.10;0.10;;;7.90;99.90;;;;;;4951452;28;20111;-61
2022/04/05 10:22:56;;;;;;;0.40;0.40;;;7.90;99.90;;;;;;4932049;29;20031;-61
2022/04/05 10:25:22;;;;;;;0.00;0.00;;;7.90;99.90;;;;;;4933839;29;20039;-60
2022/04/05 10:27:49;;;;;;;0.28;0.28;;;7.90;99.90;;;;;;4935914;29;20040;-61
2022/04/05 10:30:41;;;;;;;0.98;0.70;;;7.90;99.90;;;;;;4947440;28;20047;-61
2022/04/05 10:33:35;;;;;;;0.00;0.00;;;7.90;99.90;;;;;;4932485;29;20110;-61
2022/04/05 10:36:01;;;;;;;0.00;0.00;;;8.00;99.90;;;;;;4946837;29;20095;-61
2022/04/05 10:38:30;;;;;;;0.10;0.10;;;8.10;99.90;;;;;;4952194;28;20054;-61
2022/04/05 10:41:12;;;;;;;0.10;0.10;;;8.10;99.90;;;;;;4951199;28;20481;-61
2022/04/05 10:43:39;;;;;;;0.10;0.10;;;8.10;99.90;;;;;;4952497;29;20078;-61
2022/04/05 10:46:06;;;;;;;0.10;0.10;;;8.10;99.90;;;;;;4951953;29;20039;-61
2022/04/05 10:48:32;;;;;;;0.20;0.20;;;8.10;99.90;;;;;;4951791;28;20059;-61
2022/04/05 10:51:00;;;;;;;1.48;1.23;;;8.10;99.90;;;;;;4952236;28;20031;-61
2022/04/05 10:53:37;;;;;;;0.30;0.30;;;8.10;99.90;;;;;;4952575;29;20031;-61
2022/04/05 10:56:02;;;;;;;0.20;0.20;;;8.20;99.90;;;;;;4951908;28;20031;-61
2022/04/05 10:58:41;;;;;;;0.10;0.10;;;8.20;99.90;;;;;;4956117;28;20050;-60
2022/04/05 11:01:19;;;;;;;0.93;0.93;;;8.20;99.90;;;;;;4971694;28;20038;-61
2022/04/05 11:04:20;;;;;;;0.10;0.10;;;8.20;99.90;;;;;;4970213;28;20034;-61
2022/04/05 11:07:01;;;;;;;0.00;0.00;;;8.30;99.90;;;;;;4960596;28;20028;-61
2022/04/05 11:09:43;;;;;;;0.40;0.40;;;8.30;99.90;;;;;;4952074;28;20407;-61
2022/04/05 11:12:30;;;;;;;0.40;0.40;;;8.30;99.90;;;;;;4952209;28;20035;-61
2022/04/05 11:15:04;;;;;;;0.22;0.22;;;8.30;99.90;;;;;;4952308;28;20130;-61
2022/04/05 11:17:32;;;;;;;0.00;0.00;;;8.30;99.90;;;;;;4931296;29;20115;-61
2022/04/05 11:20:00;;;;;;;4.50;0.75;;;8.40;99.90;;;;;;4956253;28;20050;-61
2022/04/05 11:22:36;;;;;;;1.35;1.20;;;8.40;99.90;;;;;;4931691;29;20399;-61
2022/04/05 11:25:09;;;;;;;0.00;0.00;;;8.40;99.90;;;;;;4932976;29;20169;-61
2022/04/05 11:27:47;;;;;;;0.55;0.55;;;8.40;99.90;;;;;;4931010;29;20035;-61
2022/04/05 11:30:28;;;;;;;0.10;0.10;;;8.40;99.90;;;;;;4968173;28;20046;-61
2022/04/05 11:33:09;;;;;;;0.13;0.13;;;8.50;99.90;;;;;;4971197;28;20042;-61
2022/04/05 11:35:46;;;;;;;0.45;0.45;;;8.50;99.90;;;;;;4971062;28;20046;-61
2022/04/05 11:38:19;;;;;;;2.05;1.85;;;8.50;99.90;;;;;;4960162;28;20087;-61
2022/04/05 11:40:50;;;;;;;0.10;0.10;;;8.60;99.90;;;;;;4932864;29;20047;-61
2022/04/05 11:43:21;;;;;;;;;;;8.60;99.90;;;;;;4934445;29;20035;-61
2022/04/05 11:45:48;;;;;;;0.00;0.00;;;8.60;99.90;;;;;;4936624;29;20005;-61
2022/04/05 11:48:21;;;;;;;0.10;0.10;;;8.70;99.90;;;;;;4936027;29;20111;-61
2022/04/05 11:50:50;;;;;;;0.45;0.43;;;8.80;99.90;;;;;;4950754;29;20032;-61
2022/04/05 11:53:29;;;;;;;0.30;0.30;;;8.80;99.90;;;;;;4936594;29;20063;-61
2022/04/05 11:56:21;;;;;;;0.95;0.95;;;8.80;99.90;;;;;;4935795;29;20038;-61
2022/04/05 11:58:55;;;;;;;0.00;0.00;;;8.80;99.90;;;;;;4960939;28;20027;-61
2022/04/05 12:01:28;;;;;;;2.97;0.43;;;8.90;99.90;;;;;;4973223;28;20479;-61
2022/04/05 12:04:00;;;;;;;0.00;0.00;;;8.90;99.90;;;;;;4973463;28;20042;-61
2022/04/05 12:06:34;;;;;;;0.43;0.43;;;9.00;99.90;;;;;;4964336;28;20034;-61
2022/04/05 12:09:16;;;;;;;0.20;0.20;;;9.00;99.90;;;;;;4955005;28;20078;-61
2022/04/05 12:11:45;;;;;;;0.10;0.10;;;9.00;99.90;;;;;;4938967;29;20027;-61
2022/04/05 12:14:15;;;;;;;0.55;0.55;;;9.00;99.90;;;;;;4953956;29;20027;-61
2022/04/05 12:16:52;;;;;;;0.22;0.22;;;9.00;99.90;;;;;;4941025;28;20114;-61
2022/04/05 12:19:26;;;;;;;0.30;0.30;;;8.90;99.90;;;;;;4934523;29;20090;-61
2022/04/05 12:22:07;;;;;;;0.20;0.20;;;9.00;99.90;;;;;;4935426;29;20027;-61
2022/04/05 12:24:50;;;;;;;0.20;0.20;;;9.00;99.90;;;;;;4942142;29;20027;-61
2022/04/05 12:27:27;;;;;;;0.20;0.20;;;9.00;99.90;;;;;;4954257;28;20086;-61
2022/04/05 12:30:00;;;;;;;0.10;0.10;;;9.00;99.90;;;;;;4957291;28;20471;-62
2022/04/05 12:32:34;;;;;;;0.00;0.00;;;9.00;99.90;;;;;;4954905;28;20123;-61
2022/04/05 12:35:00;;;;;;;0.00;0.00;;;8.90;99.90;;;;;;4955029;28;20035;-61
2022/04/05 12:37:29;;;;;;;0.10;0.10;;;8.90;99.90;;;;;;4953187;29;20031;-61
2022/04/05 12:39:55;;;;;;;0.55;0.55;;;9.00;99.90;;;;;;4937816;29;20403;-61
2022/04/05 12:42:21;;;;;;;0.00;0.00;;;8.90;99.90;;;;;;4954621;28;20035;-61
2022/04/05 12:44:56;;;;;;;0.00;0.00;;;8.90;99.90;;;;;;4954257;28;20031;-61
2022/04/05 12:47:25;;;;;;;0.00;0.00;;;8.90;99.90;;;;;;4952626;29;20039;-61
2022/04/05 12:50:01;;;;;;;0.65;0.65;;;8.80;99.90;;;;;;4980909;23;20050;-64
2022/04/05 12:52:29;;;;;;;0.00;0.00;;;8.80;99.90;;;;;;4983679;28;20022;-63
2022/04/05 12:55:11;;;;;;;0.00;0.00;;;8.80;99.90;;;;;;4990775;28;20037;-63
2022/04/05 12:57:40;;;;;;;0.50;0.50;;;8.80;99.90;;;;;;4993181;28;20053;-63
2022/04/05 13:00:15;;;;;;;0.65;0.65;;;8.80;99.90;;;;;;4991847;28;20076;-63
2022/04/05 13:02:50;;;;;;;0.75;0.73;;;8.80;99.90;;;;;;4991760;28;20493;-64
2022/04/05 13:08:33;;;;;;;0.03;0.03;;;8.80;99.90;;;;;;4992556;28;20038;-63
2022/04/05 13:10:59;;;;;;;0.10;0.10;;;8.80;99.90;;;;;;4992521;28;20034;-63
2022/04/05 13:13:32;;;;;;;0.10;0.10;;;8.80;99.90;;;;;;4989146;28;20524;-63